Time;durP1;ratioP1;P1;durP2;ratioP2;P2;SDS_P1;SDS_P2;PMS_P1;PMS_P2;Temp;Humidity;BMP_temperature;BMP_pressure;BME280_temperature;BME280_humidity;BME280_pressure;Samples;Min_cycle;Max_cycle;Signal;HPM_P1;HPM_P2
2021/03/29 00:00:07;;;;;;;11.35;5.95;;;;;;;;;;5015423;28;20689;-77
2021/03/29 00:02:33;;;;;;;9.93;6.55;;;;;;;;;;5014865;28;20209;-77
2021/03/29 00:04:59;;;;;;;10.10;5.88;;;;;;;;;;5014604;28;20278;-77
2021/03/29 00:07:25;;;;;;;14.02;6.47;;;;;;;;;;5013431;28;20186;-77
2021/03/29 00:09:52;;;;;;;13.10;7.55;;;;;;;;;;5014842;28;20179;-77
2021/03/29 00:12:19;;;;;;;8.70;5.95;;;;;;;;;;5014775;28;20171;-77
2021/03/29 00:14:45;;;;;;;13.50;7.38;;;;;;;;;;5014535;28;20183;-77
2021/03/29 00:17:13;;;;;;;10.57;6.07;;;;;;;;;;5014884;28;20194;-77
2021/03/29 00:19:40;;;;;;;14.48;7.25;;;;;;;;;;5013468;28;20188;-76
2021/03/29 00:25:13;;;;;;;11.55;6.68;;;;;;;;;;5165067;23;20217;-78
2021/03/29 00:27:39;;;;;;;13.70;6.70;;;;;;;;;;5031409;28;20221;-77
2021/03/29 00:30:10;;;;;;;11.93;6.55;;;;;;;;;;5033097;28;20277;-77
2021/03/29 00:32:36;;;;;;;13.30;6.72;;;;;;;;;;5034176;28;20173;-77
2021/03/29 00:35:02;;;;;;;9.73;6.40;;;;;;;;;;5032815;28;20174;-77
2021/03/29 00:37:29;;;;;;;13.35;8.23;;;;;;;;;;5032771;28;20581;-77
2021/03/29 00:39:55;;;;;;;10.70;6.47;;;;;;;;;;5033942;28;20191;-77
2021/03/29 00:42:21;;;;;;;17.73;7.57;;;;;;;;;;5032555;28;20279;-77
2021/03/29 00:44:47;;;;;;;12.52;6.00;;;;;;;;;;5033681;28;20587;-79
2021/03/29 00:47:14;;;;;;;13.25;6.90;;;;;;;;;;5032733;28;20264;-77
2021/03/29 00:49:40;;;;;;;13.05;7.05;;;;;;;;;;5032812;28;20182;-77
2021/03/29 00:52:06;;;;;;;17.05;7.28;;;;;;;;;;5032994;28;20174;-76
2021/03/29 00:54:33;;;;;;;12.43;6.70;;;;;;;;;;5033715;28;20175;-77
2021/03/29 00:57:01;;;;;;;13.60;7.13;;;;;;;;;;5016353;28;20691;-77
2021/03/29 00:59:27;;;;;;;11.02;5.88;;;;;;;;;;5033699;28;20178;-76
2021/03/29 01:01:53;;;;;;;10.73;6.57;;;;;;;;;;5032459;28;20654;-76
2021/03/29 01:04:19;;;;;;;17.80;8.38;;;;;;;;;;5033671;28;20208;-77
2021/03/29 01:06:56;;;;;;;12.30;5.90;;;;;;;;;;5032117;28;20202;-77
2021/03/29 01:09:25;;;;;;;18.83;7.20;;;;;;;;;;5032165;28;20193;-76
2021/03/29 01:11:56;;;;;;;24.08;7.80;;;;;;;;;;5033443;28;20200;-77
2021/03/29 01:14:25;;;;;;;12.65;6.72;;;;;;;;;;5033581;28;20257;-77
2021/03/29 01:16:57;;;;;;;11.93;6.15;;;;;;;;;;5033389;28;20229;-76
2021/03/29 01:19:33;;;;;;;11.73;6.78;;;;;;;;;;5033546;28;20185;-77
2021/03/29 01:21:59;;;;;;;17.05;6.60;;;;;;;;;;5033424;28;20174;-77
2021/03/29 01:24:43;;;;;;;22.70;7.73;;;;;;;;;;5033390;28;20174;-77
2021/03/29 01:27:11;;;;;;;16.13;7.28;;;;;;;;;;5031962;28;20486;-77
2021/03/29 01:29:37;;;;;;;14.48;6.57;;;;;;;;;;5033265;28;20543;-77
2021/03/29 01:32:05;;;;;;;12.60;6.90;;;;;;;;;;5031908;28;20268;-77
2021/03/29 01:34:33;;;;;;;12.73;7.15;;;;;;;;;;5033285;28;20551;-77
2021/03/29 01:37:00;;;;;;;15.15;6.78;;;;;;;;;;5033137;28;20243;-76
2021/03/29 01:39:26;;;;;;;9.77;6.07;;;;;;;;;;5033286;28;20189;-77
2021/03/29 01:41:52;;;;;;;13.90;6.30;;;;;;;;;;5033019;28;20227;-77
2021/03/29 01:44:19;;;;;;;12.82;6.35;;;;;;;;;;5033066;28;20170;-77
2021/03/29 01:46:45;;;;;;;16.83;7.05;;;;;;;;;;5032840;28;20287;-77
2021/03/29 01:49:12;;;;;;;16.15;6.25;;;;;;;;;;5031658;28;20304;-77
2021/03/29 01:51:38;;;;;;;10.68;5.50;;;;;;;;;;5033072;28;20182;-77
2021/03/29 01:54:04;;;;;;;9.50;5.65;;;;;;;;;;5032912;28;20170;-77
2021/03/29 01:56:30;;;;;;;9.55;6.20;;;;;;;;;;5033026;28;20198;-77
2021/03/29 01:58:56;;;;;;;17.35;6.68;;;;;;;;;;5033149;28;20265;-77
2021/03/29 02:01:22;;;;;;;14.20;5.60;;;;;;;;;;5032873;28;20217;-76
2021/03/29 02:03:49;;;;;;;11.43;6.10;;;;;;;;;;5035575;28;20855;-77
2021/03/29 02:06:16;;;;;;;7.13;5.45;;;;;;;;;;5036727;28;20997;-77
2021/03/29 02:08:43;;;;;;;12.38;5.80;;;;;;;;;;5036855;28;20578;-77
2021/03/29 02:11:09;;;;;;;10.98;4.88;;;;;;;;;;5035447;28;20189;-77
2021/03/29 02:13:38;;;;;;;12.85;5.07;;;;;;;;;;5036826;28;20266;-77
2021/03/29 02:16:06;;;;;;;16.35;5.85;;;;;;;;;;5036643;28;20201;-77
2021/03/29 02:18:35;;;;;;;12.60;5.63;;;;;;;;;;5036687;28;20224;-77
2021/03/29 02:21:04;;;;;;;10.35;5.47;;;;;;;;;;5035354;28;20193;-77
2021/03/29 02:23:30;;;;;;;10.93;6.28;;;;;;;;;;5036606;28;20186;-77
2021/03/29 02:25:58;;;;;;;9.85;5.00;;;;;;;;;;5036219;28;20699;-76
2021/03/29 02:28:24;;;;;;;9.68;5.18;;;;;;;;;;5036878;28;20202;-77
2021/03/29 02:30:51;;;;;;;11.27;6.30;;;;;;;;;;5036675;28;20190;-77
2021/03/29 02:33:17;;;;;;;9.57;5.15;;;;;;;;;;5036309;28;20406;-77
2021/03/29 02:35:44;;;;;;;10.95;5.40;;;;;;;;;;5036054;28;20320;-77
2021/03/29 02:38:12;;;;;;;12.18;6.07;;;;;;;;;;5036354;28;20181;-77
2021/03/29 02:40:38;;;;;;;13.13;4.93;;;;;;;;;;5036606;28;20174;-77
2021/03/29 02:43:04;;;;;;;9.68;5.00;;;;;;;;;;5036258;28;20662;-77
2021/03/29 02:45:33;;;;;;;12.93;5.63;;;;;;;;;;5036014;28;20268;-77
2021/03/29 02:48:07;;;;;;;11.73;5.22;;;;;;;;;;5036100;28;20214;-77
2021/03/29 02:50:33;;;;;;;10.27;4.95;;;;;;;;;;5035059;28;20188;-77
2021/03/29 02:53:03;;;;;;;11.27;4.55;;;;;;;;;;5036010;28;20588;-77
2021/03/29 02:55:29;;;;;;;9.32;4.88;;;;;;;;;;5035952;28;20200;-77
2021/03/29 02:57:58;;;;;;;13.30;5.15;;;;;;;;;;5034605;28;20240;-76
2021/03/29 03:00:25;;;;;;;8.13;5.25;;;;;;;;;;5036117;28;20181;-77
2021/03/29 03:02:53;;;;;;;19.20;5.68;;;;;;;;;;5036128;28;20186;-77
2021/03/29 03:05:21;;;;;;;8.40;4.60;;;;;;;;;;5035655;28;20201;-77
2021/03/29 03:07:47;;;;;;;14.20;4.88;;;;;;;;;;5035688;28;20621;-76
2021/03/29 03:10:14;;;;;;;14.00;5.05;;;;;;;;;;5034477;28;20262;-77
2021/03/29 03:12:43;;;;;;;7.45;4.45;;;;;;;;;;5035836;28;20178;-76
2021/03/29 03:15:11;;;;;;;7.43;5.13;;;;;;;;;;5034462;28;20205;-77
2021/03/29 03:17:37;;;;;;;12.63;4.90;;;;;;;;;;5035700;28;20174;-77
2021/03/29 03:20:07;;;;;;;7.20;4.35;;;;;;;;;;5035428;28;20541;-77
2021/03/29 03:22:33;;;;;;;12.82;5.50;;;;;;;;;;5035607;28;20220;-77
2021/03/29 03:24:59;;;;;;;10.10;4.95;;;;;;;;;;5035222;28;20186;-77
2021/03/29 03:27:25;;;;;;;12.23;4.45;;;;;;;;;;5035243;28;20614;-77
2021/03/29 03:29:51;;;;;;;11.40;5.23;;;;;;;;;;5035476;28;20178;-76
2021/03/29 03:32:17;;;;;;;12.02;4.93;;;;;;;;;;5035214;28;20409;-76
2021/03/29 03:34:44;;;;;;;9.23;5.05;;;;;;;;;;5035210;28;20184;-76
2021/03/29 03:37:13;;;;;;;7.90;4.45;;;;;;;;;;5035241;28;20670;-76
2021/03/29 03:39:40;;;;;;;13.10;4.70;;;;;;;;;;5033954;28;20555;-77
2021/03/29 03:42:07;;;;;;;8.25;4.43;;;;;;;;;;5035027;28;20277;-78
2021/03/29 03:44:34;;;;;;;15.68;4.88;;;;;;;;;;5034825;28;20265;-78
2021/03/29 03:47:01;;;;;;;11.20;4.68;;;;;;;;;;5035077;28;20201;-78
2021/03/29 03:49:27;;;;;;;14.07;5.15;;;;;;;;;;5033728;28;20218;-78
2021/03/29 03:51:53;;;;;;;9.02;4.32;;;;;;;;;;5033853;28;20264;-78
2021/03/29 03:54:20;;;;;;;8.85;4.25;;;;;;;;;;5034049;28;20265;-78
2021/03/29 03:56:48;;;;;;;8.93;4.55;;;;;;;;;;5033481;28;20251;-76
2021/03/29 03:59:17;;;;;;;8.02;4.68;;;;;;;;;;5035828;28;20194;-78
2021/03/29 04:01:50;;;;;;;10.55;5.28;;;;;;;;;;5035346;28;20182;-78
2021/03/29 04:04:18;;;;;;;9.20;5.40;;;;;;;;;;5034841;28;20174;-78
2021/03/29 04:06:44;;;;;;;14.00;4.47;;;;;;;;;;5034386;28;20539;-75
2021/03/29 04:09:10;;;;;;;9.88;5.45;;;;;;;;;;5034653;28;20575;-75
2021/03/29 04:11:37;;;;;;;10.23;5.00;;;;;;;;;;5034652;28;20261;-75
2021/03/29 04:14:03;;;;;;;6.93;4.55;;;;;;;;;;5034444;28;20767;-78
2021/03/29 04:16:29;;;;;;;8.38;4.85;;;;;;;;;;5034080;28;20263;-76
2021/03/29 04:18:55;;;;;;;6.73;3.80;;;;;;;;;;5034527;28;20634;-78
2021/03/29 04:21:21;;;;;;;7.43;4.10;;;;;;;;;;5034739;28;20416;-78
2021/03/29 04:23:47;;;;;;;6.50;4.57;;;;;;;;;;5033127;28;20409;-78
2021/03/29 04:26:13;;;;;;;10.00;4.10;;;;;;;;;;5033886;28;20548;-78
2021/03/29 04:28:39;;;;;;;13.02;4.80;;;;;;;;;;5033175;28;20468;-78
2021/03/29 04:31:05;;;;;;;14.57;4.85;;;;;;;;;;5033194;28;20227;-78
2021/03/29 04:33:31;;;;;;;12.35;4.38;;;;;;;;;;5034299;28;20249;-78
2021/03/29 04:35:58;;;;;;;10.45;4.22;;;;;;;;;;5032450;28;20659;-79
2021/03/29 04:38:24;;;;;;;8.15;4.20;;;;;;;;;;5034225;28;20178;-78
2021/03/29 04:40:50;;;;;;;6.47;3.95;;;;;;;;;;5032912;28;20185;-78
2021/03/29 04:43:16;;;;;;;8.93;4.22;;;;;;;;;;5033898;28;20178;-78
2021/03/29 04:45:42;;;;;;;11.95;4.43;;;;;;;;;;5033619;28;20288;-78
2021/03/29 04:48:08;;;;;;;8.00;4.25;;;;;;;;;;5032640;28;20198;-78
2021/03/29 04:50:34;;;;;;;4.75;3.95;;;;;;;;;;5033884;28;20579;-76
2021/03/29 04:53:00;;;;;;;8.65;3.80;;;;;;;;;;5033755;28;20181;-76
2021/03/29 04:55:26;;;;;;;9.38;3.90;;;;;;;;;;5032343;28;20198;-77
2021/03/29 04:57:53;;;;;;;19.33;4.88;;;;;;;;;;5033806;28;20189;-77
2021/03/29 05:00:19;;;;;;;6.53;4.22;;;;;;;;;;5035609;28;20209;-77
2021/03/29 05:02:45;;;;;;;10.13;4.68;;;;;;;;;;5033874;28;20256;-77
2021/03/29 05:05:11;;;;;;;9.43;4.55;;;;;;;;;;5033507;28;20212;-77
2021/03/29 05:07:37;;;;;;;9.25;4.57;;;;;;;;;;5032173;28;20182;-77
2021/03/29 05:10:07;;;;;;;9.82;4.13;;;;;;;;;;5033733;28;20181;-77
2021/03/29 05:12:33;;;;;;;11.88;4.07;;;;;;;;;;5033444;28;20189;-77
2021/03/29 05:15:00;;;;;;;10.60;3.95;;;;;;;;;;5032291;28;20650;-77
2021/03/29 05:17:26;;;;;;;8.32;3.42;;;;;;;;;;5033728;28;20182;-77
2021/03/29 05:19:52;;;;;;;6.45;3.85;;;;;;;;;;5033306;28;20330;-77
2021/03/29 05:22:18;;;;;;;9.40;3.87;;;;;;;;;;5033439;28;20281;-77
2021/03/29 05:24:44;;;;;;;12.93;4.38;;;;;;;;;;5033235;28;20575;-77
2021/03/29 05:27:10;;;;;;;8.70;3.78;;;;;;;;;;5033185;28;20221;-77
2021/03/29 05:29:42;;;;;;;5.05;3.72;;;;;;;;;;5033404;28;20212;-77
2021/03/29 05:32:16;;;;;;;7.88;3.95;;;;;;;;;;5033355;28;20178;-77
2021/03/29 05:34:43;;;;;;;6.47;3.00;;;;;;;;;;5033075;28;20211;-77
2021/03/29 05:37:09;;;;;;;8.82;3.25;;;;;;;;;;5015073;28;20198;-77
2021/03/29 05:39:35;;;;;;;9.88;3.85;;;;;;;;;;5033131;28;20220;-77
2021/03/29 05:42:01;;;;;;;8.48;3.38;;;;;;;;;;5033220;28;20198;-77
2021/03/29 05:44:27;;;;;;;7.88;3.50;;;;;;;;;;5032896;28;20707;-81
2021/03/29 05:46:53;;;;;;;9.35;3.65;;;;;;;;;;5032750;28;20204;-77
2021/03/29 05:49:20;;;;;;;6.63;2.90;;;;;;;;;;5032891;28;20217;-77
2021/03/29 05:51:46;;;;;;;8.38;2.97;;;;;;;;;;5033114;28;20256;-77
2021/03/29 05:54:12;;;;;;;11.30;4.90;;;;;;;;;;5031817;28;20174;-77
2021/03/29 05:56:40;;;;;;;8.02;3.70;;;;;;;;;;5032715;28;20194;-77
2021/03/29 05:59:34;;;;;;;8.00;3.40;;;;;;;;;;5032959;28;20189;-77
2021/03/29 06:01:53;;;;;;;6.07;3.25;;;;;;;;;;5032730;28;20228;-78
2021/03/29 06:04:37;;;;;;;9.23;3.75;;;;;;;;;;5032881;28;20224;-79
2021/03/29 06:07:10;;;;;;;10.38;3.53;;;;;;;;;;5032674;28;20194;-77
2021/03/29 06:09:37;;;;;;;10.10;3.00;;;;;;;;;;5032891;28;20716;-77
2021/03/29 06:12:03;;;;;;;9.88;2.92;;;;;;;;;;5032856;28;20177;-77
2021/03/29 06:14:34;;;;;;;8.20;2.95;;;;;;;;;;5032854;28;20174;-77
2021/03/29 06:17:04;;;;;;;7.72;2.92;;;;;;;;;;5032747;28;20233;-77
2021/03/29 06:19:37;;;;;;;6.18;2.65;;;;;;;;;;5032497;28;20182;-78
2021/03/29 06:22:22;;;;;;;5.50;3.30;;;;;;;;;;5033207;28;20682;-77
2021/03/29 06:25:07;;;;;;;9.15;3.13;;;;;;;;;;5032318;28;20185;-77
2021/03/29 06:27:40;;;;;;;8.35;3.30;;;;;;;;;;5032703;28;20194;-77
2021/03/29 06:30:22;;;;;;;5.60;3.20;;;;;;;;;;5032840;28;20178;-77
2021/03/29 06:33:07;;;;;;;13.60;3.30;;;;;;;;;;5032764;28;20173;-77
2021/03/29 06:35:33;;;;;;;8.13;3.40;;;;;;;;;;5032148;28;20198;-76
2021/03/29 06:38:09;;;;;;;15.90;4.37;;;;;;;;;;5032754;28;20221;-76
2021/03/29 06:40:41;;;;;;;11.93;3.45;;;;;;;;;;5032632;28;20439;-76
2021/03/29 06:43:17;;;;;;;6.32;3.10;;;;;;;;;;5032551;28;20174;-76
2021/03/29 06:45:44;;;;;;;7.82;3.13;;;;;;;;;;5032000;28;20217;-77
2021/03/29 06:48:23;;;;;;;5.97;2.70;;;;;;;;;;5032468;28;20198;-77
2021/03/29 06:51:08;;;;;;;4.82;2.50;;;;;;;;;;5033670;28;20276;-77
2021/03/29 06:53:35;;;;;;;9.85;2.85;;;;;;;;;;5035879;28;20170;-76
2021/03/29 06:56:20;;;;;;;9.88;2.55;;;;;;;;;;5034409;28;20194;-77
2021/03/29 06:58:46;;;;;;;6.47;2.45;;;;;;;;;;5035931;28;20184;-77
2021/03/29 07:01:17;;;;;;;4.93;2.42;;;;;;;;;;5035881;28;20224;-77
2021/03/29 07:03:45;;;;;;;5.82;2.53;;;;;;;;;;5034395;28;20265;-77
2021/03/29 07:06:11;;;;;;;7.82;2.53;;;;;;;;;;5035468;28;20198;-77
2021/03/29 07:08:38;;;;;;;6.35;2.83;;;;;;;;;;5035697;28;20206;-76
2021/03/29 07:11:04;;;;;;;7.25;2.38;;;;;;;;;;5036410;28;20178;-77
2021/03/29 07:13:32;;;;;;;2.58;2.10;;;;;;;;;;5035650;28;20210;-77
2021/03/29 07:15:59;;;;;;;5.43;2.92;;;;;;;;;;5035009;28;20186;-77
2021/03/29 07:18:26;;;;;;;11.30;2.80;;;;;;;;;;5034542;28;20554;-76
2021/03/29 07:20:53;;;;;;;7.65;3.10;;;;;;;;;;5035608;28;20178;-76
2021/03/29 07:23:20;;;;;;;5.47;2.72;;;;;;;;;;5035538;28;20178;-77
2021/03/29 07:25:46;;;;;;;7.22;2.42;;;;;;;;;;5034821;28;20305;-76
2021/03/29 07:28:12;;;;;;;6.57;2.70;;;;;;;;;;5035241;28;20248;-77
2021/03/29 07:30:46;;;;;;;8.52;2.50;;;;;;;;;;5035372;28;20166;-77
2021/03/29 07:33:13;;;;;;;7.47;2.35;;;;;;;;;;5035466;28;20178;-76
2021/03/29 07:35:52;;;;;;;6.15;2.40;;;;;;;;;;5033726;28;20197;-77
2021/03/29 07:38:19;;;;;;;5.55;2.17;;;;;;;;;;5035559;28;20523;-78
2021/03/29 07:40:47;;;;;;;7.68;2.22;;;;;;;;;;5035255;28;20178;-77
2021/03/29 07:43:13;;;;;;;5.10;2.30;;;;;;;;;;5035183;28;20176;-77
2021/03/29 07:45:41;;;;;;;8.82;2.67;;;;;;;;;;5035206;28;20209;-77
2021/03/29 07:48:10;;;;;;;11.73;2.90;;;;;;;;;;5034825;28;20554;-76
2021/03/29 07:50:36;;;;;;;8.25;2.83;;;;;;;;;;5035002;28;20224;-77
2021/03/29 07:53:04;;;;;;;6.90;2.30;;;;;;;;;;5034914;28;20530;-77
2021/03/29 07:55:43;;;;;;;5.70;2.90;;;;;;;;;;5034473;28;20425;-77
2021/03/29 07:58:13;;;;;;;8.48;2.45;;;;;;;;;;5034792;28;20256;-77
2021/03/29 08:00:39;;;;;;;5.50;3.10;;;;;;;;;;5034444;28;20178;-77
2021/03/29 08:03:11;;;;;;;6.95;2.80;;;;;;;;;;5034721;28;20459;-77
2021/03/29 08:05:42;;;;;;;8.90;2.90;;;;;;;;;;5032987;28;20213;-77
2021/03/29 08:08:26;;;;;;;8.10;2.53;;;;;;;;;;5034436;28;20445;-76
2021/03/29 08:11:17;;;;;;;6.37;2.23;;;;;;;;;;5034597;28;20496;-77
2021/03/29 08:13:43;;;;;;;5.27;2.50;;;;;;;;;;5033252;28;20905;-77
2021/03/29 08:16:10;;;;;;;8.03;2.37;;;;;;;;;;5032603;28;20443;-77
2021/03/29 08:18:55;;;;;;;6.43;2.73;;;;;;;;;;5033111;28;20774;-77
2021/03/29 08:21:40;;;;;;;9.03;2.10;;;;;;;;;;5033044;28;20917;-77
2021/03/29 08:24:06;;;;;;;5.60;2.20;;;;;;;;;;5033010;28;20405;-78
2021/03/29 08:26:41;;;;;;;5.13;1.77;;;;;;;;;;5032398;28;20855;-76
2021/03/29 08:29:08;;;;;;;11.90;2.53;;;;;;;;;;5034082;28;20459;-77
2021/03/29 08:32:00;;;;;;;8.90;2.10;;;;;;;;;;5032796;28;20420;-77
2021/03/29 08:34:26;;;;;;;12.63;2.40;;;;;;;;;;5031932;28;20432;-77
2021/03/29 08:36:54;;;;;;;8.13;2.17;;;;;;;;;;5032435;28;20945;-77
2021/03/29 08:39:21;;;;;;;7.10;2.50;;;;;;;;;;5034045;28;20417;-76
2021/03/29 08:41:50;;;;;;;6.73;2.00;;;;;;;;;;5032774;28;20436;-76
2021/03/29 08:44:16;;;;;;;6.07;2.10;;;;;;;;;;5033763;28;20447;-77
2021/03/29 08:46:44;;;;;;;6.60;2.00;;;;;;;;;;5033388;28;20472;-77
2021/03/29 08:49:11;;;;;;;7.80;2.60;;;;;;;;;;5033842;28;20991;-77
2021/03/29 08:51:37;;;;;;;11.57;2.70;;;;;;;;;;5033887;28;20413;-77
2021/03/29 08:54:13;;;;;;;5.50;2.03;;;;;;;;;;5032555;28;20402;-78
2021/03/29 08:56:54;;;;;;;6.97;2.10;;;;;;;;;;5033193;28;20428;-78
2021/03/29 08:59:26;;;;;;;8.23;1.80;;;;;;;;;;5033870;28;20409;-77
2021/03/29 09:01:53;;;;;;;6.50;1.83;;;;;;;;;;5033753;28;20406;-78
2021/03/29 09:04:19;;;;;;;3.53;1.80;;;;;;;;;;5032179;28;20388;-80
2021/03/29 09:06:45;;;;;;;5.70;1.77;;;;;;;;;;5033017;28;20959;-78
2021/03/29 09:09:15;;;;;;;6.43;1.60;;;;;;;;;;5033451;28;20423;-79
2021/03/29 09:11:45;;;;;;;3.43;2.00;;;;;;;;;;5033180;28;20417;-78
2021/03/29 09:14:12;;;;;;;5.27;1.70;;;;;;;;;;5032950;28;20379;-78
2021/03/29 09:16:39;;;;;;;4.83;1.97;;;;;;;;;;5033115;28;20426;-78
2021/03/29 09:19:17;;;;;;;6.43;1.70;;;;;;;;;;5033211;28;20379;-78
2021/03/29 09:21:44;;;;;;;5.70;1.90;;;;;;;;;;5031903;28;20396;-77
2021/03/29 09:24:19;;;;;;;5.10;1.60;;;;;;;;;;5033431;28;20410;-77
2021/03/29 09:26:55;;;;;;;5.93;1.50;;;;;;;;;;5032706;28;20433;-78
2021/03/29 09:29:22;;;;;;;4.57;1.53;;;;;;;;;;5033105;28;20434;-78
2021/03/29 09:31:48;;;;;;;9.33;1.80;;;;;;;;;;5033156;28;20417;-80
2021/03/29 09:34:14;;;;;;;11.60;1.53;;;;;;;;;;5033082;28;20405;-79
2021/03/29 09:36:42;;;;;;;5.30;2.10;;;;;;;;;;5032649;28;20424;-79
2021/03/29 09:39:14;;;;;;;6.23;1.60;;;;;;;;;;5033017;28;20527;-78
2021/03/29 09:41:51;;;;;;;5.17;1.50;;;;;;;;;;5031963;28;20481;-79
2021/03/29 09:44:24;;;;;;;3.70;1.43;;;;;;;;;;5031739;28;20409;-78
2021/03/29 09:46:53;;;;;;;4.30;1.50;;;;;;;;;;5032654;28;20447;-77
2021/03/29 09:49:19;;;;;;;7.83;1.70;;;;;;;;;;5032967;28;20508;-78
2021/03/29 09:51:46;;;;;;;15.73;1.67;;;;;;;;;;5033035;28;20405;-79
2021/03/29 09:54:21;;;;;;;3.63;2.00;;;;;;;;;;5032781;28;20454;-79
2021/03/29 09:56:47;;;;;;;5.50;1.60;;;;;;;;;;5032476;28;20420;-78
2021/03/29 09:59:13;;;;;;;8.10;2.40;;;;;;;;;;5032814;28;20408;-79
2021/03/29 10:01:43;;;;;;;6.53;1.70;;;;;;;;;;5032998;28;20755;-78
2021/03/29 10:04:14;;;;;;;5.23;1.47;;;;;;;;;;5030086;28;20901;-79
2021/03/29 10:06:50;;;;;;;8.23;1.97;;;;;;;;;;5028032;28;20468;-79
2021/03/29 10:09:28;;;;;;;5.43;1.80;;;;;;;;;;5031103;28;20486;-79
2021/03/29 10:11:54;;;;;;;9.40;1.90;;;;;;;;;;5030413;28;20460;-79
2021/03/29 10:14:20;;;;;;;4.77;1.90;;;;;;;;;;5031141;28;20980;-79
2021/03/29 10:16:50;;;;;;;7.40;2.20;;;;;;;;;;5029192;28;20445;-79
2021/03/29 10:19:19;;;;;;;9.50;1.60;;;;;;;;;;5030790;28;20425;-78
2021/03/29 10:22:04;;;;;;;6.40;1.80;;;;;;;;;;5030896;28;20776;-81
2021/03/29 10:24:30;;;;;;;7.80;1.77;;;;;;;;;;5032177;28;20775;-80
2021/03/29 10:26:58;;;;;;;3.63;1.80;;;;;;;;;;5034589;28;20831;-82
2021/03/29 10:29:35;;;;;;;6.73;2.57;;;;;;;;;;5034234;28;20456;-81
2021/03/29 10:32:03;;;;;;;4.83;1.50;;;19.80;77.60;;;;;;5033272;28;20428;-80
2021/03/29 10:34:29;;;;;;;5.07;1.60;;;19.70;77.10;;;;;;5034384;28;20420;-81
2021/03/29 10:36:54;;;;;;;5.70;1.50;;;19.80;76.00;;;;;;5034856;28;20523;-80
2021/03/29 10:39:20;;;;;;;4.30;1.50;;;19.80;74.10;;;;;;5033700;28;20190;-83
2021/03/29 10:41:45;;;;;;;6.47;1.80;;;20.30;73.90;;;;;;5034608;28;20179;-78
2021/03/29 10:44:14;;;;;;;8.37;1.83;;;20.80;74.70;;;;;;5033437;28;20204;-81
2021/03/29 10:46:42;;;;;;;4.43;1.57;;;19.90;67.40;;;;;;5034705;28;20202;-79
2021/03/29 10:49:09;;;;;;;1.80;1.10;;;20.10;68.60;;;;;;5036439;28;20460;-80
2021/03/29 10:51:37;;;;;;;10.33;1.43;;;20.10;65.80;;;;;;5034970;28;20421;-80
2021/03/29 10:54:03;;;;;;;2.53;1.27;;;20.40;62.60;;;;;;5033041;28;20869;-80
2021/03/29 10:56:29;;;;;;;2.27;1.23;;;20.10;63.70;;;;;;5033559;28;20439;-77
2021/03/29 10:58:54;;;;;;;5.90;1.50;;;20.20;62.40;;;;;;5034146;28;20981;-79
2021/03/29 11:01:20;;;;;;;3.23;1.60;;;20.80;58.60;;;;;;5034310;28;20192;-78
2021/03/29 11:03:46;;;;;;;9.40;1.90;;;20.60;56.90;;;;;;5033614;28;20196;-77
2021/03/29 11:06:11;;;;;;;2.20;1.40;;;20.40;59.90;;;;;;5032835;28;20256;-78
2021/03/29 11:08:38;;;;;;;5.33;2.10;;;20.70;58.70;;;;;;5032756;28;20484;-78
2021/03/29 11:11:04;;;;;;;3.53;1.50;;;20.70;62.50;;;;;;5033630;28;20200;-79
2021/03/29 11:13:29;;;;;;;5.70;2.20;;;21.20;59.50;;;;;;5034182;28;20858;-78
2021/03/29 11:15:56;;;;;;;2.50;1.40;;;21.00;59.60;;;;;;5032176;28;20202;-78
2021/03/29 11:18:22;;;;;;;7.80;1.47;;;20.80;56.40;;;;;;5033584;28;20277;-77
2021/03/29 11:20:48;;;;;;;2.53;1.30;;;21.10;54.00;;;;;;5033703;28;20507;-78
2021/03/29 11:23:13;;;;;;;2.40;1.10;;;21.00;54.10;;;;;;5034312;28;20190;-78
2021/03/29 11:25:39;;;;;;;6.93;1.60;;;20.70;54.00;;;;;;5032519;28;20224;-78
2021/03/29 11:28:05;;;;;;;4.67;1.33;;;;;;;;;;5032600;28;20205;-82
2021/03/29 11:30:31;;;;;;;6.17;1.50;;;20.30;52.60;;;;;;5033488;28;20648;-78
2021/03/29 11:32:56;;;;;;;4.77;1.80;;;21.00;54.60;;;;;;5033207;28;20482;-78
2021/03/29 11:35:22;;;;;;;11.57;2.13;;;21.00;55.20;;;;;;5032246;28;20244;-78
2021/03/29 11:37:48;;;;;;;2.87;1.33;;;21.30;52.80;;;;;;5032227;28;20186;-78
2021/03/29 11:40:14;;;;;;;5.50;1.73;;;21.20;53.60;;;;;;5032689;28;20181;-77
2021/03/29 11:42:41;;;;;;;3.67;1.50;;;21.70;55.10;;;;;;5033889;28;20213;-79
2021/03/29 11:45:08;;;;;;;6.37;1.57;;;21.70;55.70;;;;;;5032543;28;21226;-78
2021/03/29 11:47:34;;;;;;;2.13;1.50;;;21.40;51.00;;;;;;5033097;28;20417;-81
2021/03/29 11:50:00;;;;;;;4.60;1.20;;;;;;;;;;5033032;28;20420;-80
2021/03/29 11:52:26;;;;;;;4.43;1.27;;;21.10;52.70;;;;;;5033509;28;20603;-81
2021/03/29 11:54:51;;;;;;;9.87;1.73;;;21.50;54.10;;;;;;5013871;28;20432;-77
2021/03/29 11:57:18;;;;;;;4.60;1.47;;;21.50;53.90;;;;;;5033235;28;20687;-78
2021/03/29 11:59:51;;;;;;;1.73;1.20;;;21.50;53.50;;;;;;5032982;28;20281;-79
2021/03/29 12:02:28;;;;;;;3.53;1.50;;;21.50;53.60;;;;;;5032478;28;20506;-78
2021/03/29 12:05:05;;;;;;;7.70;2.27;;;21.90;54.00;;;;;;5032561;28;20460;-79
2021/03/29 12:07:45;;;;;;;11.00;1.30;;;22.00;52.90;;;;;;5031010;28;20857;-80
2021/03/29 12:12:56;;;;;;;5.30;1.67;;;22.10;53.30;;;;;;5032673;28;20416;-80
2021/03/29 12:15:22;;;;;;;10.80;1.97;;;21.80;51.80;;;;;;5015196;28;20437;-77
2021/03/29 12:17:49;;;;;;;3.90;1.50;;;21.70;51.50;;;;;;5032056;28;20543;-80
2021/03/29 12:20:16;;;;;;;5.43;1.83;;;21.70;53.00;;;;;;5031908;28;20456;-78
2021/03/29 12:22:46;;;;;;;3.93;1.57;;;21.80;54.30;;;;;;5032426;28;20888;-79
2021/03/29 12:25:18;;;;;;;8.83;1.90;;;21.80;52.80;;;;;;5032075;28;20411;-79
2021/03/29 12:27:44;;;;;;;3.50;1.57;;;22.20;53.90;;;;;;5031352;28;20782;-79
2021/03/29 12:30:14;;;;;;;2.80;1.70;;;22.40;54.00;;;;;;5031773;28;20865;-78
2021/03/29 12:32:42;;;;;;;6.90;2.07;;;22.40;53.30;;;;;;5030305;28;20412;-77
2021/03/29 12:35:11;;;;;;;3.47;1.33;;;22.00;51.60;;;;;;5031273;28;20430;-79
2021/03/29 12:37:38;;;;;;;5.10;1.40;;;22.30;52.50;;;;;;5029891;28;20424;-78
2021/03/29 12:40:14;;;;;;;5.13;2.00;;;22.50;54.40;;;;;;5030797;28;20432;-78
2021/03/29 12:43:04;;;;;;;3.90;1.30;;;22.60;53.10;;;;;;5030132;28;20459;-78
2021/03/29 12:45:32;;;;;;;4.70;1.60;;;23.20;50.90;;;;;;5030555;28;20527;-76
2021/03/29 12:48:04;;;;;;;7.93;1.57;;;23.30;51.10;;;;;;5012480;28;20555;-79
2021/03/29 12:50:31;;;;;;;3.57;1.40;;;23.00;50.10;;;;;;5031391;28;20428;-77
2021/03/29 12:52:57;;;;;;;5.40;1.70;;;23.40;43.50;;;;;;5029857;28;21011;-76
2021/03/29 12:55:25;;;;;;;7.40;2.00;;;23.30;43.60;;;;;;5029441;28;20440;-77
2021/03/29 12:57:54;;;;;;;1.60;1.50;;;23.20;43.00;;;;;;5032649;28;20162;-77
2021/03/29 13:00:21;;;;;;;5.20;1.30;;;22.90;43.30;;;;;;5032762;28;20417;-78
2021/03/29 13:02:48;;;;;;;2.60;1.60;;;22.90;42.20;;;;;;5031580;28;20433;-77
2021/03/29 13:05:20;;;;;;;4.50;1.90;;;22.90;42.70;;;;;;5032294;28;20467;-77
2021/03/29 13:07:56;;;;;;;5.93;2.07;;;22.90;42.60;;;;;;5031380;28;20778;-78
2021/03/29 13:13:08;;;;;;;4.90;2.07;;;23.10;41.50;;;;;;5033087;28;20493;-77
2021/03/29 13:15:33;;;;;;;5.50;2.40;;;23.30;42.50;;;;;;5032246;28;20440;-78
2021/03/29 13:17:59;;;;;;;6.07;1.90;;;23.60;43.80;;;;;;5032441;28;20491;-79
2021/03/29 13:20:25;;;;;;;4.07;2.10;;;23.50;42.40;;;;;;5032794;28;20189;-78
2021/03/29 13:22:52;;;;;;;5.33;1.60;;;23.60;41.00;;;;;;5032132;28;20623;-79
2021/03/29 13:25:26;;;;;;;5.80;2.07;;;23.80;39.20;;;;;;5010924;28;570977;-78
2021/03/29 13:27:53;;;;;;;2.83;1.60;;;23.30;39.70;;;;;;5033178;28;20496;-78
2021/03/29 13:30:20;;;;;;;3.47;2.17;;;23.30;40.50;;;;;;5032947;28;20423;-79
2021/03/29 13:32:46;;;;;;;5.70;2.80;;;23.60;42.40;;;;;;5033070;28;20417;-78
2021/03/29 13:35:12;;;;;;;2.03;1.30;;;23.70;41.00;;;;;;5032941;28;20933;-77
2021/03/29 13:37:42;;;;;;;4.10;1.47;;;23.60;40.40;;;;;;5033164;28;20542;-78
2021/03/29 13:40:11;;;;;;;4.47;1.37;;;23.60;40.80;;;;;;5032597;28;20417;-77
2021/03/29 13:42:37;;;;;;;4.33;2.00;;;23.40;40.10;;;;;;5031524;28;20424;-77
2021/03/29 13:45:03;;;;;;;6.43;2.27;;;23.50;39.30;;;;;;5032342;28;20447;-77
2021/03/29 13:47:29;;;;;;;3.83;1.60;;;24.00;41.30;;;;;;5031674;28;20182;-78
2021/03/29 13:49:55;;;;;;;4.37;1.50;;;24.20;40.30;;;;;;5032652;28;20468;-79
2021/03/29 13:52:21;;;;;;;2.83;1.70;;;24.00;40.90;;;;;;5031524;28;20174;-79
2021/03/29 13:54:47;;;;;;;4.40;1.50;;;24.30;40.70;;;;;;5032676;28;20409;-78
2021/03/29 13:57:13;;;;;;;2.70;1.73;;;24.20;39.10;;;;;;5032978;28;20409;-77
2021/03/29 13:59:39;;;;;;;3.40;1.40;;;23.90;37.90;;;;;;5035531;28;20182;-79
2021/03/29 14:02:06;;;;;;;3.70;1.50;;;23.80;38.40;;;;;;5037042;28;20913;-79
2021/03/29 14:04:34;;;;;;;3.70;1.30;;;23.70;38.30;;;;;;5036376;28;20182;-78
2021/03/29 14:07:00;;;;;;;4.57;1.67;;;23.70;38.50;;;;;;5036748;28;20952;-79
2021/03/29 14:09:28;;;;;;;7.80;2.53;;;24.00;41.10;;;;;;5036732;28;20460;-77
2021/03/29 14:11:55;;;;;;;3.90;1.50;;;24.00;40.30;;;;;;5036872;28;20968;-78
2021/03/29 14:14:23;;;;;;;4.60;1.73;;;25.00;42.20;;;;;;5036913;28;20887;-79
2021/03/29 14:16:50;;;;;;;4.40;1.60;;;24.80;40.20;;;;;;5036269;28;20439;-80
2021/03/29 14:19:18;;;;;;;6.00;2.00;;;24.70;39.30;;;;;;5036999;28;20739;-80
2021/03/29 14:21:45;;;;;;;2.93;2.00;;;25.30;40.30;;;;;;5036706;28;20777;-79